Terminal Aerodrome Forecast
Issued by NWS Twin Cities, MN

Home | Current Version | Previous Version | Graphics & Text | Print | Product List | Glossary On
Versions: 1 2 3 4 5 6 7 8 9 10 11 12 13 14 15 16 17
000
FTUS43 KMPX 240536
TAFSTC
TAF
KSTC 240536Z 2406/2506 02012G20KT P6SM OVC100
     FM242000 34014G23KT P6SM OVC180=

USA.gov is the U.S. government's official web portal to all federal, state and local government web resources and services.